Time;durP1;ratioP1;P1;durP2;ratioP2;P2;SDS_P1;SDS_P2;PMS_P1;PMS_P2;Temp;Humidity;BMP_temperature;BMP_pressure;BME280_temperature;BME280_humidity;BME280_pressure;Samples;Min_cycle;Max_cycle;Signal;HPM_P1;HPM_P2
2022/01/04 00:00:10;;;;;;;9.52;3.92;;;;;;;;;;5072028;28;20043;-76
2022/01/04 00:02:36;;;;;;;11.93;4.05;;;;;;;;;;5089831;28;20469;-76
2022/01/04 00:05:04;;;;;;;12.70;3.95;;;;;;;;;;5089813;28;20078;-76
2022/01/04 00:07:30;;;;;;;12.00;4.30;;;;;;;;;;5090686;28;20385;-76
2022/01/04 00:09:56;;;;;;;10.85;4.88;;;;;;;;;;5090944;28;20063;-76
2022/01/04 00:15:07;;;;;;;10.75;4.20;;;;;;;;;;5097310;28;20389;-75
2022/01/04 00:17:33;;;;;;;11.07;4.30;;;;;;;;;;5072812;28;20386;-75
2022/01/04 00:19:59;;;;;;;11.57;4.13;;;;;;;;;;5090473;28;20065;-76
2022/01/04 00:22:25;;;;;;;14.75;4.80;;;;;;;;;;5090887;28;20512;-76
2022/01/04 00:24:51;;;;;;;13.18;4.53;;;;;;;;;;5090110;28;20044;-75
2022/01/04 00:27:17;;;;;;;12.60;4.70;;;;;;;;;;5090019;28;20047;-75
2022/01/04 00:29:43;;;;;;;13.05;4.93;;;;;;;;;;5089796;28;20060;-75
2022/01/04 00:32:09;;;;;;;11.32;4.88;;;;;;;;;;5090261;28;20127;-75
2022/01/04 00:34:35;;;;;;;10.70;4.63;;;;;;;;;;5090963;28;20063;-75
2022/01/04 00:37:01;;;;;;;10.75;4.72;;;;;;;;;;5072048;28;20382;-76
2022/01/04 00:39:27;;;;;;;7.47;4.53;;;;;;;;;;5088971;28;20470;-76
2022/01/04 00:41:53;;;;;;;10.35;4.80;;;;;;;;;;5090395;28;20040;-75
2022/01/04 00:44:19;;;;;;;11.85;5.10;;;;;;;;;;5089800;28;20397;-76
2022/01/04 00:46:45;;;;;;;10.27;4.80;;;;;;;;;;5089493;28;20044;-76
2022/01/04 00:49:11;;;;;;;10.50;4.28;;;;;;;;;;5090408;28;20093;-76
2022/01/04 00:51:42;;;;;;;9.82;4.00;;;;;;;;;;5090449;28;20035;-76
2022/01/04 00:54:09;;;;;;;7.55;3.85;;;;;;;;;;5090955;28;20051;-76
2022/01/04 00:56:36;;;;;;;9.23;3.88;;;;;;;;;;5090787;28;20488;-76
2022/01/04 00:59:03;;;;;;;7.43;4.10;;;;;;;;;;5072628;28;20508;-76
2022/01/04 01:01:29;;;;;;;6.20;3.25;;;;;;;;;;5076498;28;20043;-76
2022/01/04 01:03:55;;;;;;;7.57;3.60;;;;;;;;;;5056165;28;20123;-76
2022/01/04 01:06:22;;;;;;;6.53;3.55;;;;;;;;;;5056277;28;20493;-75
2022/01/04 01:08:49;;;;;;;5.57;3.20;;;;;;;;;;5074184;28;20493;-75
2022/01/04 01:11:16;;;;;;;6.18;3.30;;;;;;;;;;5073852;28;20040;-75
2022/01/04 01:13:42;;;;;;;7.18;3.47;;;;;;;;;;5073740;28;20048;-75
2022/01/04 01:16:09;;;;;;;6.47;3.28;;;;;;;;;;5073719;28;20041;-75
2022/01/04 01:18:36;;;;;;;4.78;2.70;;;;;;;;;;5073443;28;20039;-75
2022/01/04 01:21:03;;;;;;;5.40;2.90;;;;;;;;;;5074000;28;20505;-75
2022/01/04 01:23:29;;;;;;;4.75;2.83;;;;;;;;;;5073632;28;20048;-75
2022/01/04 01:25:56;;;;;;;5.10;2.80;;;;;;;;;;5074228;28;20466;-75
2022/01/04 01:28:22;;;;;;;6.15;2.88;;;;;;;;;;5073752;28;20044;-75
2022/01/04 01:30:48;;;;;;;6.63;2.58;;;;;;;;;;5073797;28;20421;-75
2022/01/04 01:33:15;;;;;;;4.55;2.65;;;;;;;;;;5073151;28;20040;-77
2022/01/04 01:35:42;;;;;;;4.82;2.70;;;;;;;;;;5073661;28;20052;-77
2022/01/04 01:38:08;;;;;;;6.82;2.67;;;;;;;;;;5074108;28;20037;-75
2022/01/04 01:40:36;;;;;;;4.65;2.47;;;;;;;;;;5074673;28;20036;-75
2022/01/04 01:43:03;;;;;;;5.43;2.70;;;;;;;;;;5074567;28;20037;-76
2022/01/04 01:45:29;;;;;;;6.82;2.60;;;;;;;;;;5073797;28;20048;-75
2022/01/04 01:47:55;;;;;;;3.90;2.40;;;;;;;;;;5073316;28;20387;-75
2022/01/04 01:50:21;;;;;;;4.55;2.60;;;;;;;;;;5082795;28;20043;-78
2022/01/04 01:52:49;;;;;;;7.60;4.07;;;;;;;;;;5092066;28;20409;-78
2022/01/04 01:55:19;;;;;;;5.95;3.20;;;;;;;;;;5073903;28;20048;-75
2022/01/04 01:57:47;;;;;;;5.35;2.35;;;;;;;;;;5092345;28;20036;-76
2022/01/04 02:00:15;;;;;;;5.30;2.50;;;;;;;;;;5092822;28;20035;-78
2022/01/04 02:02:41;;;;;;;4.88;2.33;;;;;;;;;;5080675;22;20055;-77
2022/01/04 02:05:08;;;;;;;3.95;2.38;;;;;;;;;;5093167;28;20043;-77
2022/01/04 02:07:36;;;;;;;4.47;2.35;;;;;;;;;;5092680;28;20465;-77
2022/01/04 02:10:05;;;;;;;6.07;2.70;;;;;;;;;;5092593;28;20404;-77
2022/01/04 02:12:33;;;;;;;5.70;2.88;;;;;;;;;;5092502;28;20047;-77
2022/01/04 02:14:59;;;;;;;4.80;2.60;;;;;;;;;;5092668;28;20071;-77
2022/01/04 02:17:26;;;;;;;5.38;2.60;;;;;;;;;;5090244;28;20028;-78
2022/01/04 02:19:56;;;;;;;7.25;3.10;;;;;;;;;;5092842;28;20028;-78
2022/01/04 02:22:22;;;;;;;6.70;3.60;;;;;;;;;;5092022;28;20039;-77
2022/01/04 02:24:48;;;;;;;6.90;3.53;;;;;;;;;;5092834;28;20046;-76
2022/01/04 02:27:15;;;;;;;6.15;3.55;;;;;;;;;;5092787;28;20077;-75
2022/01/04 02:29:42;;;;;;;6.60;3.88;;;;;;;;;;5092004;28;20498;-74
2022/01/04 02:32:08;;;;;;;5.80;3.47;;;;;;;;;;5075117;28;20043;-77
2022/01/04 02:34:34;;;;;;;7.95;3.88;;;;;;;;;;5071636;28;20040;-74
2022/01/04 02:37:00;;;;;;;5.70;3.63;;;;;;;;;;5071662;28;20123;-74
2022/01/04 02:39:26;;;;;;;8.18;3.83;;;;;;;;;;5071719;28;20045;-77
2022/01/04 02:41:52;;;;;;;7.53;3.70;;;;;;;;;;5072394;28;20489;-77
2022/01/04 02:44:18;;;;;;;7.68;4.35;;;;;;;;;;5071505;28;20147;-76
2022/01/04 02:46:44;;;;;;;8.75;4.97;;;;;;;;;;5037222;28;20119;-77
2022/01/04 02:49:10;;;;;;;8.63;4.85;;;;;;;;;;5071830;28;20363;-77
2022/01/04 02:51:36;;;;;;;8.75;5.35;;;;;;;;;;5071758;28;20051;-77
2022/01/04 02:54:02;;;;;;;8.20;4.75;;;;;;;;;;5071251;28;20048;-76
2022/01/04 02:56:28;;;;;;;7.85;4.88;;;;;;;;;;5071330;28;20032;-77
2022/01/04 02:58:56;;;;;;;7.72;4.43;;;;;;;;;;5071119;28;20044;-77
2022/01/04 03:01:21;;;;;;;8.13;4.50;;;;;;;;;;5079162;28;20040;-77
2022/01/04 03:03:47;;;;;;;10.68;6.20;;;;;;;;;;5089797;28;20089;-77
2022/01/04 03:06:14;;;;;;;8.80;5.22;;;;;;;;;;5091569;28;20062;-77
2022/01/04 03:08:40;;;;;;;9.18;5.35;;;;;;;;;;5091274;28;20032;-76
2022/01/04 03:11:06;;;;;;;8.50;4.75;;;;;;;;;;5091116;28;20090;-76
2022/01/04 03:13:32;;;;;;;7.90;5.10;;;;;;;;;;5091516;28;20036;-77
2022/01/04 03:15:58;;;;;;;9.00;4.97;;;;;;;;;;5091827;28;20040;-77
2022/01/04 03:18:23;;;;;;;9.48;4.22;;;;;;;;;;5091761;28;20024;-76
2022/01/04 03:20:49;;;;;;;7.97;4.60;;;;;;;;;;5091358;28;20040;-76
2022/01/04 03:23:15;;;;;;;8.10;5.15;;;;;;;;;;5091573;28;20040;-76
2022/01/04 03:25:41;;;;;;;7.88;4.57;;;;;;;;;;5091143;28;20394;-76
2022/01/04 03:28:07;;;;;;;12.45;4.50;;;;;;;;;;5091610;28;20040;-76
2022/01/04 03:30:34;;;;;;;8.85;4.15;;;;;;;;;;5091413;28;20040;-76
2022/01/04 03:33:00;;;;;;;10.05;4.10;;;;;;;;;;5091180;28;20040;-77
2022/01/04 03:35:27;;;;;;;6.70;3.35;;;;;;;;;;5072369;28;20039;-76
2022/01/04 03:37:53;;;;;;;5.28;2.88;;;;;;;;;;5090590;28;20028;-76
2022/01/04 03:40:19;;;;;;;5.63;3.08;;;;;;;;;;5090904;28;20058;-77
2022/01/04 03:42:45;;;;;;;5.93;2.63;;;;;;;;;;5072642;28;20050;-77
2022/01/04 03:45:11;;;;;;;4.47;2.50;;;;;;;;;;5090847;28;20032;-77
2022/01/04 03:47:37;;;;;;;5.30;2.60;;;;;;;;;;5090576;28;20035;-76
2022/01/04 03:50:03;;;;;;;4.72;2.25;;;;;;;;;;5090699;28;20144;-76
2022/01/04 03:52:29;;;;;;;5.93;2.60;;;;;;;;;;5090738;28;20192;-76
2022/01/04 03:54:55;;;;;;;4.93;2.10;;;;;;;;;;5089197;28;20047;-76
2022/01/04 03:57:21;;;;;;;6.03;2.40;;;;;;;;;;5088975;28;20047;-76
2022/01/04 03:59:47;;;;;;;3.40;2.10;;;;;;;;;;5090354;28;20032;-76
2022/01/04 04:02:13;;;;;;;4.25;2.13;;;;;;;;;;5090486;28;20078;-76
2022/01/04 04:04:39;;;;;;;4.10;2.00;;;;;;;;;;5090467;28;20113;-77
2022/01/04 04:07:05;;;;;;;3.17;1.85;;;;;;;;;;5090400;28;20094;-77
2022/01/04 04:09:34;;;;;;;3.05;1.90;;;;;;;;;;5090063;28;20429;-76
2022/01/04 04:12:02;;;;;;;5.45;2.00;;;;;;;;;;5090067;28;20043;-76
2022/01/04 04:14:29;;;;;;;6.03;2.15;;;;;;;;;;5089879;28;20040;-76
2022/01/04 04:16:55;;;;;;;3.35;1.90;;;;;;;;;;5090689;28;20422;-77
2022/01/04 04:19:21;;;;;;;3.60;1.80;;;;;;;;;;5090319;28;20040;-76
2022/01/04 04:21:46;;;;;;;3.25;1.98;;;;;;;;;;5090800;28;20071;-76
2022/01/04 04:24:12;;;;;;;3.70;2.00;;;;;;;;;;5090474;28;20079;-76
2022/01/04 04:26:38;;;;;;;1.95;1.70;;;;;;;;;;5090424;28;20063;-76
2022/01/04 04:29:04;;;;;;;3.15;1.80;;;;;;;;;;5090733;28;20052;-76
2022/01/04 04:31:30;;;;;;;2.92;1.70;;;;;;;;;;5090159;28;20124;-76
2022/01/04 04:33:56;;;;;;;3.85;1.85;;;;;;;;;;5090285;28;20059;-76
2022/01/04 04:36:21;;;;;;;3.65;1.70;;;;;;;;;;5089845;28;20083;-76
2022/01/04 04:38:47;;;;;;;2.42;1.75;;;;;;;;;;5087118;28;20056;-76
2022/01/04 04:41:13;;;;;;;4.47;1.70;;;;;;;;;;5071119;28;20079;-76
2022/01/04 04:43:39;;;;;;;2.83;1.80;;;;;;;;;;5090141;28;20436;-76
2022/01/04 04:46:05;;;;;;;3.38;1.75;;;;;;;;;;5090610;28;20043;-75
2022/01/04 04:48:31;;;;;;;3.25;1.67;;;;;;;;;;5089534;28;20508;-75
2022/01/04 04:50:57;;;;;;;2.85;1.80;;;;;;;;;;5089944;28;20040;-75
2022/01/04 04:53:23;;;;;;;2.92;1.58;;;;;;;;;;5090394;28;20070;-75
2022/01/04 04:55:49;;;;;;;2.25;1.58;;;;;;;;;;5090449;28;20048;-75
2022/01/04 04:58:15;;;;;;;1.88;1.30;;;;;;;;;;5089730;28;20040;-75
2022/01/04 05:00:40;;;;;;;2.60;1.60;;;;;;;;;;5088494;28;20040;-75
2022/01/04 05:03:06;;;;;;;2.90;1.60;;;;;;;;;;5089847;28;20390;-75
2022/01/04 05:05:32;;;;;;;2.67;1.70;;;;;;;;;;5090407;28;20036;-75
2022/01/04 05:07:58;;;;;;;3.38;1.80;;;;;;;;;;5089481;28;20038;-77
2022/01/04 05:10:24;;;;;;;5.38;1.60;;;;;;;;;;5089333;28;20059;-77
2022/01/04 05:12:50;;;;;;;2.78;1.70;;;;;;;;;;5089602;28;20059;-76
2022/01/04 05:15:16;;;;;;;2.60;1.65;;;;;;;;;;5088684;28;20063;-76
2022/01/04 05:17:42;;;;;;;2.05;1.50;;;;;;;;;;5089555;28;20047;-78
2022/01/04 05:20:08;;;;;;;2.08;1.52;;;;;;;;;;5071305;28;20064;-77
2022/01/04 05:22:34;;;;;;;3.45;2.05;;;;;;;;;;5089951;28;20047;-76
2022/01/04 05:25:00;;;;;;;4.10;1.67;;;;;;;;;;5089848;28;20064;-76
2022/01/04 05:27:26;;;;;;;2.70;1.70;;;;;;;;;;5089676;28;20107;-77
2022/01/04 05:29:52;;;;;;;4.30;1.77;;;;;;;;;;5089437;28;20040;-76
2022/01/04 05:32:18;;;;;;;2.72;1.58;;;;;;;;;;5068311;28;20036;-77
2022/01/04 05:34:43;;;;;;;1.60;1.45;;;;;;;;;;5090324;28;20124;-77
2022/01/04 05:37:09;;;;;;;3.97;1.40;;;;;;;;;;5089438;28;20036;-77
2022/01/04 05:39:35;;;;;;;2.40;1.60;;;;;;;;;;5089180;28;20040;-78
2022/01/04 05:42:01;;;;;;;3.00;1.90;;;;;;;;;;5090048;28;20435;-79
2022/01/04 05:44:27;;;;;;;3.42;1.85;;;;;;;;;;5089724;28;20469;-78
2022/01/04 05:46:53;;;;;;;3.33;1.60;;;;;;;;;;5091697;28;20048;-77
2022/01/04 05:49:19;;;;;;;2.63;1.58;;;;;;;;;;5092487;28;20486;-76
2022/01/04 05:51:45;;;;;;;4.43;1.60;;;;;;;;;;5092509;28;20040;-78
2022/01/04 05:54:11;;;;;;;2.53;1.40;;;;;;;;;;5092350;28;20101;-79
2022/01/04 05:56:37;;;;;;;2.70;1.60;;;;;;;;;;5084458;28;20052;-78
2022/01/04 05:59:03;;;;;;;2.58;1.70;;;;;;;;;;5091589;28;20036;-78
2022/01/04 06:01:28;;;;;;;3.67;1.80;;;;;;;;;;5091648;28;20109;-78
2022/01/04 06:03:54;;;;;;;2.88;1.70;;;;;;;;;;5091807;28;20100;-78
2022/01/04 06:06:20;;;;;;;3.92;1.70;;;;;;;;;;5065376;28;20086;-78
2022/01/04 06:08:47;;;;;;;3.72;1.98;;;;;;;;;;5078928;28;20549;-77
2022/01/04 06:11:30;;;;;;;3.20;1.75;;;;;;;;;;5074855;28;20044;-79
2022/01/04 06:16:41;;;;;;;6.05;3.25;;;;;;;;;;5080166;28;20422;-78
2022/01/04 06:19:07;;;;;;;4.22;2.05;;;;;;;;;;5089984;28;20028;-78
2022/01/04 06:21:33;;;;;;;3.63;1.75;;;;;;;;;;5051551;28;20044;-78
2022/01/04 06:23:59;;;;;;;3.20;1.92;;;;;;;;;;5081169;28;20059;-77
2022/01/04 06:26:27;;;;;;;4.97;2.00;;;;;;;;;;5071713;28;20055;-77
2022/01/04 06:28:53;;;;;;;7.15;2.63;;;;;;;;;;5072724;28;20037;-77
2022/01/04 06:31:19;;;;;;;6.95;3.80;;;;;;;;;;5089313;28;20056;-75
2022/01/04 06:33:44;;;;;;;7.07;3.30;;;;;;;;;;5080930;28;20067;-76
2022/01/04 06:36:10;;;;;;;3.42;2.30;;;;;;;;;;5091785;28;20550;-77
2022/01/04 06:38:36;;;;;;;3.10;2.05;;;;;;;;;;5080088;28;20032;-77
2022/01/04 06:41:02;;;;;;;3.83;2.30;;;;;;;;;;5088976;28;20119;-74
2022/01/04 06:43:28;;;;;;;3.45;2.17;;;;;;;;;;5075644;28;20039;-72
2022/01/04 06:45:54;;;;;;;3.50;1.80;;;;;;;;;;5083308;28;20407;-75
2022/01/04 06:48:20;;;;;;;4.55;1.80;;;;;;;;;;5077754;28;20051;-77
2022/01/04 06:50:46;;;;;;;1.95;1.40;;;;;;;;;;5067729;28;20032;-77
2022/01/04 06:53:11;;;;;;;4.35;2.28;;;;;;;;;;5078821;28;20036;-77
2022/01/04 06:55:37;;;;;;;7.05;2.42;;;;;;;;;;5087936;28;20098;-79
2022/01/04 06:58:03;;;;;;;5.28;1.90;;;;;;;;;;5077407;28;20393;-79
2022/01/04 07:00:29;;;;;;;4.00;1.85;;;;;;;;;;5089277;28;20043;-80
2022/01/04 07:02:55;;;;;;;5.32;1.70;;;;;;;;;;5091686;28;20036;-80
2022/01/04 07:05:21;;;;;;;4.15;1.75;;;;;;;;;;5075028;28;20382;-78
2022/01/04 07:07:50;;;;;;;4.68;2.30;;;;;;;;;;5086917;28;20029;-80
2022/01/04 07:10:16;;;;;;;5.75;2.30;;;;;;;;;;5082208;28;20062;-80
2022/01/04 07:12:41;;;;;;;4.78;2.50;;;;;;;;;;5073898;28;20469;-78
2022/01/04 07:15:08;;;;;;;22.17;12.88;;;;;;;;;;5075484;28;20127;-79
2022/01/04 07:17:38;;;;;;;14.10;7.53;;;;;;;;;;5073387;28;20073;-77
2022/01/04 07:20:06;;;;;;;11.15;5.18;;;;;;;;;;5087793;28;20032;-78
2022/01/04 07:22:32;;;;;;;5.03;2.40;;;;;;;;;;5091111;28;20520;-78
2022/01/04 07:24:58;;;;;;;4.95;2.10;;;;;;;;;;5090533;28;20036;-78
2022/01/04 07:27:24;;;;;;;4.53;1.70;;;;;;;;;;5081362;28;20497;-79
2022/01/04 07:29:49;;;;;;;2.08;1.30;;;;;;;;;;5091213;28;20144;-82
2022/01/04 07:32:15;;;;;;;6.90;1.40;;;;;;;;;;5090598;28;20127;-79
2022/01/04 07:34:41;;;;;;;3.85;1.52;;;;;;;;;;5090208;28;20462;-79
2022/01/04 07:37:07;;;;;;;2.08;1.33;;;;;;;;;;5090659;28;20032;-79
2022/01/04 07:39:33;;;;;;;4.15;1.20;;;;;;;;;;5091020;28;20040;-79
2022/01/04 07:42:00;;;;;;;2.00;1.08;;;;;;;;;;5091376;28;20358;-78
2022/01/04 07:44:26;;;;;;;1.38;0.95;;;;;;;;;;5090893;28;20032;-76
2022/01/04 07:46:52;;;;;;;2.45;1.20;;;;;;;;;;5076740;28;20033;-76
2022/01/04 07:49:18;;;;;;;3.10;1.30;;;;;;;;;;5069356;28;20393;-77
2022/01/04 07:51:44;;;;;;;2.55;1.40;;;;;;;;;;5075970;28;20020;-78
2022/01/04 07:54:10;;;;;;;3.35;1.40;;;;;;;;;;5083843;28;20398;-78
2022/01/04 07:56:36;;;;;;;2.75;1.50;;;;;;;;;;5078947;28;20036;-78
2022/01/04 07:59:03;;;;;;;4.32;1.50;;;;;;;;;;5086465;28;20039;-77
2022/01/04 08:01:29;;;;;;;24.73;13.90;;;;;;;;;;5087750;28;20377;-79
2022/01/04 08:03:55;;;;;;;7.93;4.00;;;;;;;;;;5066692;28;20063;-78
2022/01/04 08:06:21;;;;;;;3.90;1.65;;;;;;;;;;5080340;28;20024;-78
2022/01/04 08:08:47;;;;;;;3.55;1.60;;;;;;;;;;5076881;28;20040;-78
2022/01/04 08:11:13;;;;;;;3.92;1.30;;;;;;;;;;5087834;28;20286;-78
2022/01/04 08:13:38;;;;;;;2.95;1.52;;;;;;;;;;5074207;28;20039;-78
2022/01/04 08:16:04;;;;;;;3.72;1.40;;;;;;;;;;5083982;28;20024;-78
2022/01/04 08:18:30;;;;;;;3.28;1.40;;;;;;;;;;5085510;28;20039;-78
2022/01/04 08:20:57;;;;;;;4.15;1.50;;;;;;;;;;5076641;28;20070;-79
2022/01/04 08:23:25;;;;;;;4.10;1.40;;;;;;;;;;5072540;28;20041;-78
2022/01/04 08:25:54;;;;;;;2.97;1.42;;;;;;;;;;5082535;28;20039;-78
2022/01/04 08:28:20;;;;;;;2.70;1.45;;;;;;;;;;5079991;28;20043;-78
2022/01/04 08:30:47;;;;;;;3.90;1.52;;;;;;;;;;5078087;28;20044;-76
2022/01/04 08:33:13;;;;;;;10.32;1.73;;;;;;;;;;5086776;28;20059;-78
2022/01/04 08:35:40;;;;;;;2.15;1.17;;;;;;;;;;5073577;28;20040;-78
2022/01/04 08:38:07;;;;;;;2.50;1.30;;;;;;;;;;5083407;28;20390;-78
2022/01/04 08:40:33;;;;;;;1.88;1.30;;;;;;;;;;5073819;28;20059;-79
2022/01/04 08:42:59;;;;;;;6.88;1.50;;;;;;;;;;5086945;28;20031;-78
2022/01/04 08:45:26;;;;;;;4.20;1.60;;;;;;;;;;5090586;28;20039;-78
2022/01/04 08:47:53;;;;;;;11.95;6.55;;;;;;;;;;5090994;28;20016;-79
2022/01/04 08:50:20;;;;;;;7.45;3.30;;;;;;;;;;5090868;28;20106;-77
2022/01/04 08:52:51;;;;;;;3.25;1.80;;;;;;;;;;5090882;28;20040;-77
2022/01/04 08:55:17;;;;;;;2.72;1.63;;;;;;;;;;5090490;28;20052;-77
2022/01/04 08:57:43;;;;;;;2.42;1.40;;;;;;;;;;5073153;28;20409;-79
2022/01/04 09:00:11;;;;;;;4.13;1.40;;;;;;;;;;5090062;28;20528;-78
2022/01/04 09:02:36;;;;;;;5.93;1.95;;;;;;;;;;5090756;28;20042;-78
2022/01/04 09:05:03;;;;;;;12.93;6.75;;;;;;;;;;5090577;28;20505;-77
2022/01/04 09:07:29;;;;;;;14.35;8.02;;;;;;;;;;5089843;28;20042;-77
2022/01/04 09:09:55;;;;;;;5.38;2.40;;;;;;;;;;5081731;28;20055;-79
2022/01/04 09:12:25;;;;;;;3.00;1.58;;;;;;;;;;5077089;28;20474;-79
2022/01/04 09:20:05;;;;;;;3.47;1.95;;;;;;;;;;5087817;28;20024;-78
2022/01/04 09:22:31;;;;;;;5.22;2.10;;;;;;;;;;5064185;28;20031;-78
2022/01/04 09:24:57;;;;;;;3.95;1.90;;;;;;;;;;5082478;28;20679;-78
2022/01/04 09:27:23;;;;;;;5.65;1.83;;;;;;;;;;5088389;28;20079;-77
2022/01/04 09:29:50;;;;;;;4.10;1.60;;;;;;;;;;5076445;28;20076;-78
2022/01/04 09:32:17;;;;;;;4.40;1.73;;;;;;;;;;5087752;28;20041;-77
2022/01/04 09:34:44;;;;;;;3.15;1.73;;;;;;;;;;5083321;28;20024;-78
2022/01/04 09:37:10;;;;;;;6.07;1.70;;;;;;;;;;5080965;28;20028;-78
2022/01/04 09:39:35;;;;;;;4.40;1.60;;;;;;;;;;5090410;28;20492;-78
2022/01/04 09:42:01;;;;;;;3.83;1.70;;;;;;;;;;5068350;28;20044;-78
2022/01/04 09:44:28;;;;;;;4.47;1.92;;;;;;;;;;5086266;28;20048;-78
2022/01/04 09:46:55;;;;;;;6.55;1.95;;;;;;;;;;5056650;28;20040;-78
2022/01/04 09:49:21;;;;;;;6.40;1.95;;;;;;;;;;5092290;28;20048;-78
2022/01/04 09:51:49;;;;;;;4.68;2.00;;;;;;;;;;5073720;28;20067;-78
2022/01/04 09:54:24;;;;;;;3.55;1.90;;;;;;;;;;5074650;28;20113;-79
2022/01/04 09:56:52;;;;;;;5.63;1.90;;;;;;;;;;5087139;28;20083;-77
2022/01/04 09:59:19;;;;;;;6.15;2.03;;;;;;;;;;5071718;28;20044;-78
2022/01/04 10:01:51;;;;;;;4.75;1.70;;;;;;;;;;5093533;28;20044;-78
2022/01/04 10:04:23;;;;;;;31.70;21.10;;;;;;;;;;5093302;28;20048;-78
2022/01/04 10:07:03;;;;;;;6.50;2.20;;;;;;;;;;5091603;28;20417;-79
2022/01/04 10:09:38;;;;;;;4.82;1.90;;;;;;;;;;5085713;28;20390;-78
2022/01/04 10:12:10;;;;;;;4.93;2.08;;;;;;;;;;5092338;28;20044;-79
2022/01/04 10:14:40;;;;;;;2.88;1.50;;;;;;;;;;5089613;28;20040;-78
2022/01/04 10:17:20;;;;;;;2.85;1.52;;;;;;;;;;5096896;28;20059;-79
2022/01/04 10:19:49;;;;;;;2.65;1.50;;;;;;;;;;5085726;28;20032;-79
2022/01/04 10:22:26;;;;;;;4.60;1.45;;;;;;;;;;5075757;28;20020;-79
2022/01/04 10:25:04;;;;;;;3.05;1.70;;;;;;;;;;5081920;28;20040;-79
2022/01/04 10:27:30;;;;;;;5.57;1.90;;;;;;;;;;5079451;28;20036;-79
2022/01/04 10:30:19;;;;;;;3.70;1.80;;;;;;;;;;5089544;28;20028;-79
2022/01/04 10:33:00;;;;;;;4.25;1.90;;;;;;;;;;5078554;28;20043;-79
2022/01/04 10:35:46;;;;;;;2.95;1.70;;;;;;;;;;5062186;28;20154;-78
2022/01/04 10:38:26;;;;;;;3.80;1.88;;;;;;;;;;5089500;28;20036;-78
2022/01/04 10:41:22;;;;;;;44.05;24.17;;;;;;;;;;5079678;28;20040;-79
2022/01/04 10:43:54;;;;;;;5.72;2.10;;;;;;;;;;5077882;28;20024;-79
2022/01/04 10:46:42;;;;;;;5.63;2.20;;;;;;;;;;5075322;28;20039;-79
2022/01/04 10:49:19;;;;;;;4.40;2.20;;;;;;;;;;5082446;28;20028;-78
2022/01/04 10:52:02;;;;;;;4.13;1.90;;;;;;;;;;5077161;28;20048;-79
2022/01/04 10:54:28;;;;;;;5.47;1.88;;;;;;;;;;5076851;28;20038;-78
2022/01/04 10:57:04;;;;;;;3.72;1.88;;;;;;;;;;5083824;28;20048;-78
2022/01/04 10:59:29;;;;;;;2.65;1.60;;;;;;;;;;5084788;28;20393;-78
2022/01/04 11:01:55;;;;;;;1.73;1.10;;;;;;;;;;5084409;28;20048;-78
2022/01/04 11:04:21;;;;;;;4.57;1.30;;;;;;;;;;5091700;28;20416;-79
2022/01/04 11:06:49;;;;;;;2.95;1.48;;;;;;;;;;5090372;28;20036;-77
2022/01/04 11:09:16;;;;;;;2.95;1.40;;;;;;;;;;5091282;28;20119;-77
2022/01/04 11:11:42;;;;;;;2.35;1.40;;;;;;;;;;5092079;28;20031;-77
2022/01/04 11:14:10;;;;;;;2.28;1.17;;;;;;;;;;5092134;28;20032;-78
2022/01/04 11:16:36;;;;;;;3.88;1.17;;;;;;;;;;5074250;28;20036;-77
2022/01/04 11:19:03;;;;;;;2.13;1.20;;;;;;;;;;5073422;28;20127;-77
2022/01/04 11:21:36;;;;;;;2.15;1.00;;;;;;;;;;5092213;28;20035;-77
2022/01/04 11:24:08;;;;;;;2.42;1.30;;;;;;;;;;5089553;28;20035;-77
2022/01/04 11:26:39;;;;;;;1.17;1.00;;;;;;;;;;5090651;28;20027;-77
2022/01/04 11:29:05;;;;;;;1.40;1.05;;;;;;;;;;5090029;28;20047;-77
2022/01/04 11:31:37;;;;;;;2.15;1.30;;;;;;;;;;5089923;28;20040;-77
2022/01/04 11:34:06;;;;;;;2.97;0.90;;;;;;;;;;5089717;28;20051;-77
2022/01/04 11:36:51;;;;;;;1.95;1.17;;;;;;;;;;5092130;28;20028;-78
2022/01/04 11:39:33;;;;;;;3.42;1.30;;;;;;;;;;5091193;28;20039;-78
2022/01/04 11:42:10;;;;;;;2.65;1.20;;;;;;;;;;5092001;28;20381;-78
2022/01/04 11:44:47;;;;;;;2.20;1.20;;;;;;;;;;5090496;28;20036;-78
2022/01/04 11:47:15;;;;;;;2.97;1.45;;;;;;;;;;5091553;28;20040;-78
2022/01/04 11:50:15;;;;;;;4.78;1.48;;;;;;;;;;5090398;28;20040;-78
2022/01/04 11:52:47;;;;;;;4.00;1.80;;;;;;;;;;5091128;28;20478;-78
2022/01/04 11:55:23;;;;;;;3.35;1.42;;;;;;;;;;5091220;28;20421;-79
2022/01/04 11:57:53;;;;;;;4.05;1.70;;;;;;;;;;5091289;28;20489;-81
2022/01/04 12:00:28;;;;;;;3.17;1.80;;;;;;;;;;5091198;28;20682;-77
2022/01/04 12:03:02;;;;;;;6.60;2.00;;;;;;;;;;5089766;28;20044;-78
2022/01/04 12:05:29;;;;;;;3.17;1.65;;;;;;;;;;5090190;28;20489;-78
2022/01/04 12:07:57;;;;;;;3.63;1.70;;;;;;;;;;5090936;28;20044;-78
2022/01/04 12:10:23;;;;;;;4.43;1.80;;;;;;;;;;5072962;28;20389;-77
2022/01/04 12:13:04;;;;;;;2.60;1.38;;;;;;;;;;5090592;28;20047;-78
2022/01/04 12:15:33;;;;;;;3.90;1.55;;;;;;;;;;5084584;28;20033;-82
2022/01/04 12:18:22;;;;;;;4.05;1.50;;;;;;;;;;5073215;28;20406;-78
2022/01/04 12:20:52;;;;;;;1.92;1.15;;;;;;;;;;5089958;28;20035;-79
2022/01/04 12:23:27;;;;;;;1.65;1.13;;;;;;;;;;5062313;28;20020;-76
2022/01/04 12:28:30;;;;;;;1.02;0.90;;;;;;;;;;5084473;28;20035;-81
2022/01/04 12:31:19;;;;;;;3.47;1.25;;;;;;;;;;5091665;28;20024;-80
2022/01/04 12:33:50;;;;;;;1.75;1.00;;;;;;;;;;5090497;28;20043;-77
2022/01/04 12:36:30;;;;;;;2.17;1.17;;;;;;;;;;5090259;28;20497;-78
2022/01/04 12:38:58;;;;;;;1.20;1.10;;;;;;;;;;5090381;28;20047;-78
2022/01/04 12:41:25;;;;;;;1.27;1.08;;;;;;;;;;5090151;28;20047;-78
2022/01/04 12:43:52;;;;;;;2.95;1.20;;;;;;;;;;5089824;28;20043;-78
2022/01/04 12:46:29;;;;;;;2.08;1.10;;;;;;;;;;5089996;28;20040;-78
2022/01/04 12:48:59;;;;;;;2.92;1.45;;;;;;;;;;5072131;28;20028;-78
2022/01/04 12:51:33;;;;;;;3.00;1.30;;;;;;;;;;5089125;28;20040;-78
2022/01/04 12:54:01;;;;;;;4.72;1.20;;;;;;;;;;5090964;28;20036;-78
2022/01/04 12:56:28;;;;;;;2.88;1.48;;;;;;;;;;5093831;28;20401;-78
2022/01/04 12:58:55;;;;;;;3.72;1.40;;;;;;;;;;5093296;28;20044;-78
2022/01/04 13:01:27;;;;;;;2.45;1.30;;;;;;;;;;5094219;28;20040;-78
2022/01/04 13:03:56;;;;;;;3.30;1.17;;;;;;;;;;5093733;28;20048;-78
2022/01/04 13:06:23;;;;;;;3.00;1.30;;;;;;;;;;5094816;28;20047;-78
2022/01/04 13:09:00;;;;;;;2.20;1.17;;;;;;;;;;5094393;28;20047;-78
2022/01/04 13:11:26;;;;;;;2.60;1.50;;;;;;;;;;5093749;28;20043;-78
2022/01/04 13:13:56;;;;;;;2.28;1.30;;;;;;;;;;5094786;28;20040;-78
2022/01/04 13:16:30;;;;;;;4.18;1.40;;;;;;;;;;5094324;28;20040;-78
2022/01/04 13:19:19;;;;;;;3.03;1.48;;;;;;;;;;5093710;28;20036;-78
2022/01/04 13:22:00;;;;;;;3.10;1.50;;;;;;;;;;5092728;28;20036;-78
2022/01/04 13:24:29;;;;;;;2.90;1.30;;;;;;;;;;5093078;28;20035;-78
2022/01/04 13:27:28;;;;;;;4.05;1.60;;;;;;;;;;5092331;28;20046;-79
2022/01/04 13:30:11;;;;;;;2.00;1.35;;;;;;;;;;5073159;28;20028;-78
2022/01/04 13:32:39;;;;;;;2.95;1.60;;;;;;;;;;5094663;28;20028;-77
2022/01/04 13:35:05;;;;;;;4.60;1.60;;;;;;;;;;5094074;28;20020;-77
2022/01/04 13:37:32;;;;;;;3.63;1.55;;;;;;;;;;5075611;28;20066;-77
2022/01/04 13:39:58;;;;;;;2.95;1.60;;;;;;;;;;5093566;28;20040;-77
2022/01/04 13:42:39;;;;;;;5.00;2.03;;;;;;;;;;5092797;28;20036;-79
2022/01/04 13:45:20;;;;;;;5.00;2.17;;;;;;;;;;5093437;28;20035;-79
2022/01/04 13:47:50;;;;;;;4.90;2.40;;;;;;;;;;5094348;28;20063;-77
2022/01/04 13:50:18;;;;;;;4.53;2.20;;;;;;;;;;5093600;28;20039;-78
2022/01/04 13:53:23;;;;;;;2.30;1.60;;;;;;;;;;5092196;28;20043;-79
2022/01/04 13:56:02;;;;;;;16.13;8.90;;;;;;;;;;5084080;28;20048;-77
2022/01/04 13:58:34;;;;;;;4.90;2.55;;;;;;;;;;5093875;28;20395;-77
2022/01/04 14:01:32;;;;;;;2.92;1.50;;;;;;;;;;5093113;28;20477;-77
2022/01/04 14:04:15;;;;;;;2.85;1.77;;;;;;;;;;5067482;28;20051;-77
2022/01/04 14:06:55;;;;;;;2.67;1.58;;;;;;;;;;5092300;28;20350;-77
2022/01/04 14:09:24;;;;;;;5.18;1.40;;;;;;;;;;5093877;28;20055;-77
2022/01/04 14:11:53;;;;;;;1.50;1.27;;;;;;;;;;5093698;28;20398;-77
2022/01/04 14:14:22;;;;;;;4.55;1.50;;;;;;;;;;5093371;28;20036;-77
2022/01/04 14:16:55;;;;;;;3.97;1.77;;;;;;;;;;5093027;28;20039;-77
2022/01/04 14:19:26;;;;;;;3.13;1.52;;;;;;;;;;5092167;28;20425;-77
2022/01/04 14:22:06;;;;;;;3.67;1.63;;;;;;;;;;5092653;28;20044;-77
2022/01/04 14:24:35;;;;;;;3.88;1.70;;;;;;;;;;5093762;28;20036;-77
2022/01/04 14:27:15;;;;;;;5.18;2.00;;;;;;;;;;5093034;28;20032;-77
2022/01/04 14:29:44;;;;;;;3.90;1.70;;;;;;;;;;5091681;28;20382;-77
2022/01/04 14:32:10;;;;;;;4.00;1.90;;;;;;;;;;5090479;28;20076;-77
2022/01/04 14:34:36;;;;;;;2.95;1.55;;;;;;;;;;5074985;28;20036;-77
2022/01/04 14:37:03;;;;;;;4.22;2.00;;;;;;;;;;5074648;28;20040;-77
2022/01/04 14:39:31;;;;;;;3.90;2.00;;;;;;;;;;5075770;28;20042;-78
2022/01/04 14:42:00;;;;;;;3.75;1.70;;;;;;;;;;5093730;28;20024;-78
2022/01/04 14:44:26;;;;;;;3.10;1.45;;;;;;;;;;5092235;28;20047;-78
2022/01/04 14:46:53;;;;;;;2.50;1.40;;;;;;;;;;5075421;28;20045;-78
2022/01/04 14:49:19;;;;;;;4.13;1.90;;;;;;;;;;5075077;28;20036;-78
2022/01/04 14:51:45;;;;;;;3.08;1.70;;;;;;;;;;5092190;28;20044;-78
2022/01/04 14:54:11;;;;;;;3.13;1.70;;;;;;;;;;5092451;28;20051;-77
2022/01/04 14:56:42;;;;;;;8.35;3.85;;;;;;;;;;5092587;28;20036;-78
2022/01/04 14:59:08;;;;;;;16.88;9.75;;;;;;;;;;5093193;28;20055;-78
2022/01/04 15:01:35;;;;;;;5.40;2.55;;;;;;;;;;5093076;28;20040;-78